createdAt,value
2023-05-09T00:00:30.432Z,23.15
2023-05-09T00:05:22.260Z,23.77
2023-05-09T00:10:14.402Z,24.23
2023-05-09T00:15:08.496Z,22.67
2023-05-09T00:20:01.732Z,21.90
2023-05-09T00:24:53.797Z,22.77
2023-05-09T00:29:45.599Z,23.95
2023-05-09T00:34:37.476Z,23.35
2023-05-09T00:39:29.387Z,22.70
2023-05-09T00:44:21.195Z,23.15
2023-05-09T00:49:13.134Z,23.33
2023-05-09T00:54:07.641Z,23.10
2023-05-09T00:59:01.076Z,24.42
2023-05-09T01:03:54.076Z,27.70
2023-05-09T01:08:49.236Z,23.88
2023-05-09T01:13:44.498Z,24.15
2023-05-09T01:19:00.953Z,22.77
2023-05-09T01:24:11.129Z,22.25
2023-05-09T01:29:11.807Z,21.15
2023-05-09T01:34:06.123Z,22.08
2023-05-09T01:38:59.377Z,22.10
2023-05-09T01:43:53.513Z,22.63
2023-05-09T01:48:45.923Z,24.45
2023-05-09T01:53:38.202Z,22.38
2023-05-09T01:58:32.697Z,22.17
2023-05-09T02:03:26.014Z,24.80
2023-05-09T02:08:21.436Z,25.70
2023-05-09T02:13:13.289Z,21.13
2023-05-09T02:18:05.240Z,22.55
2023-05-09T02:22:57.549Z,27.40
2023-05-09T02:27:50.518Z,21.13
2023-05-09T02:32:45.825Z,25.27
2023-05-09T02:37:38.451Z,22.15
2023-05-09T02:42:30.939Z,21.70
2023-05-09T02:47:22.926Z,23.88
2023-05-09T02:52:14.942Z,26.90
2023-05-09T02:57:07.094Z,24.00
2023-05-09T03:01:58.939Z,29.63
2023-05-09T03:06:50.809Z,28.63
2023-05-09T03:11:42.784Z,33.33
2023-05-09T03:16:35.290Z,28.95
2023-05-09T03:21:30.419Z,28.67
2023-05-09T03:26:22.265Z,31.30
2023-05-09T03:31:15.080Z,27.70
2023-05-09T03:36:08.385Z,33.30
2023-05-09T03:41:01.213Z,24.60
2023-05-09T03:45:53.293Z,29.52
2023-05-09T03:50:45.610Z,32.72
2023-05-09T03:55:38.837Z,24.40
2023-05-09T04:00:31.026Z,26.92
2023-05-09T04:05:33.963Z,28.42
2023-05-09T04:10:26.914Z,28.08
2023-05-09T04:15:20.147Z,25.08
2023-05-09T04:20:12.885Z,23.40
2023-05-09T04:25:07.681Z,28.42
2023-05-09T04:30:00.442Z,22.30
2023-05-09T04:34:52.301Z,27.67
2023-05-09T04:39:49.167Z,24.73
2023-05-09T04:44:47.879Z,21.27
2023-05-09T04:49:40.638Z,19.98
2023-05-09T04:54:32.676Z,19.77
2023-05-09T04:59:24.449Z,20.08
2023-05-09T05:04:17.236Z,20.90
2023-05-09T05:09:10.258Z,20.85
2023-05-09T05:14:02.040Z,18.70
2023-05-09T05:18:53.957Z,19.65
2023-05-09T05:23:46.857Z,19.85
2023-05-09T05:28:39.950Z,20.15
2023-05-09T05:33:32.076Z,20.55
2023-05-09T05:38:25.005Z,22.05
2023-05-09T05:43:20.191Z,27.20
2023-05-09T05:48:12.515Z,17.83
2023-05-09T05:53:04.551Z,19.35
2023-05-09T05:57:56.486Z,20.23
2023-05-09T06:02:48.466Z,17.52
2023-05-09T06:08:06.086Z,18.52
2023-05-09T06:12:58.059Z,22.30
2023-05-09T06:17:50.425Z,18.30
2023-05-09T06:22:42.347Z,19.02
2023-05-09T06:27:34.136Z,22.10
2023-05-09T06:32:26.058Z,19.17
2023-05-09T06:37:17.852Z,22.38
2023-05-09T06:42:10.037Z,19.20
2023-05-09T06:47:03.946Z,16.77
2023-05-09T06:51:55.707Z,20.60
2023-05-09T06:56:47.838Z,20.42
2023-05-09T07:01:41.016Z,23.80
2023-05-09T07:06:33.122Z,22.85
2023-05-09T07:11:25.118Z,19.02
2023-05-09T07:16:18.666Z,21.02
2023-05-09T07:21:10.570Z,20.30
2023-05-09T07:26:02.416Z,19.23
2023-05-09T07:30:57.440Z,18.00
2023-05-09T07:35:49.557Z,19.02
2023-05-09T07:40:41.458Z,21.00
2023-05-09T07:45:33.450Z,19.23
2023-05-09T07:50:25.394Z,19.15
2023-05-09T07:55:17.609Z,20.75
2023-05-09T08:00:10.911Z,18.38
2023-05-09T08:05:06.016Z,21.38
2023-05-09T08:09:57.830Z,23.95
2023-05-09T08:14:52.522Z,21.85
2023-05-09T08:19:44.338Z,24.10
2023-05-09T08:24:36.089Z,26.30
2023-05-09T08:29:29.178Z,22.00
2023-05-09T08:34:21.231Z,25.02
2023-05-09T08:39:12.987Z,25.15
2023-05-09T08:44:05.077Z,27.60
2023-05-09T08:48:57.233Z,28.23
2023-05-09T08:53:49.506Z,27.25
2023-05-09T08:58:42.302Z,27.38
2023-05-09T09:03:34.072Z,26.33
2023-05-09T09:08:27.688Z,27.73
2023-05-09T09:13:21.317Z,26.60
2023-05-09T09:18:18.327Z,25.83
2023-05-09T09:23:10.878Z,22.83
2023-05-09T09:28:03.230Z,23.80
2023-05-09T09:32:55.583Z,24.20
2023-05-09T09:37:47.497Z,23.95
2023-05-09T09:42:48.107Z,23.95
2023-05-09T09:47:42.771Z,22.50
2023-05-09T09:52:34.578Z,21.75
2023-05-09T09:57:37.563Z,23.45
2023-05-09T10:02:29.432Z,23.75
2023-05-09T10:07:24.073Z,21.13
2023-05-09T10:12:19.866Z,21.15
2023-05-09T10:17:14.581Z,20.63
2023-05-09T10:22:10.228Z,19.88
2023-05-09T10:27:11.793Z,16.08
2023-05-09T10:32:15.756Z,15.77
2023-05-09T10:37:08.769Z,15.98
2023-05-09T10:42:01.070Z,19.98
2023-05-09T10:46:53.907Z,15.95
2023-05-09T10:51:45.754Z,15.85
2023-05-09T10:56:38.807Z,16.70
2023-05-09T11:01:37.541Z,15.30
2023-05-09T11:06:45.709Z,13.52
2023-05-09T11:11:51.670Z,17.00
2023-05-09T11:16:58.860Z,12.25
2023-05-09T11:22:01.605Z,11.43
2023-05-09T11:26:53.454Z,11.45
2023-05-09T11:32:08.007Z,11.00
2023-05-09T11:37:16.457Z,12.35
2023-05-09T11:42:09.334Z,11.73
2023-05-09T11:47:01.501Z,12.73
2023-05-09T11:51:53.637Z,12.95
2023-05-09T11:56:45.669Z,11.35
2023-05-09T12:01:37.866Z,13.00
2023-05-09T12:06:30.227Z,11.60
2023-05-09T12:11:22.227Z,12.80
2023-05-09T12:16:15.229Z,12.98
2023-05-09T12:21:07.652Z,17.65
2023-05-09T12:25:59.498Z,10.63
2023-05-09T12:30:53.088Z,13.93
2023-05-09T12:35:49.348Z,12.63
2023-05-09T12:40:41.474Z,12.45
2023-05-09T12:45:33.973Z,12.10
2023-05-09T12:50:35.003Z,12.75
2023-05-09T12:55:27.125Z,10.82
2023-05-09T13:00:19.833Z,14.32
2023-05-09T13:05:13.472Z,13.57
2023-05-09T13:10:12.771Z,10.82
2023-05-09T13:15:06.078Z,11.00
2023-05-09T13:19:57.916Z,11.73
2023-05-09T13:24:49.788Z,14.85
2023-05-09T13:29:41.647Z,12.05
2023-05-09T13:34:33.508Z,15.02
2023-05-09T13:39:25.289Z,10.68
2023-05-09T13:44:17.110Z,11.85
2023-05-09T13:49:08.867Z,16.13
2023-05-09T13:54:00.745Z,11.60
2023-05-09T13:58:52.497Z,16.40
2023-05-09T14:03:44.924Z,14.02
2023-05-09T14:08:36.776Z,15.65
2023-05-09T14:13:28.891Z,11.10
2023-05-09T14:18:21.273Z,13.35
2023-05-09T14:23:13.692Z,13.57
2023-05-09T14:28:07.274Z,13.00
2023-05-09T14:32:59.061Z,11.25
2023-05-09T14:37:50.915Z,14.90
2023-05-09T14:42:42.718Z,14.02
2023-05-09T14:47:34.687Z,14.05
2023-05-09T14:52:26.610Z,13.25
2023-05-09T14:57:18.457Z,12.38
2023-05-09T15:02:10.302Z,11.43
2023-05-09T15:07:02.051Z,10.60
2023-05-09T15:11:54.258Z,14.18
2023-05-09T15:16:46.096Z,10.88
2023-05-09T15:21:37.959Z,11.82
2023-05-09T15:26:30.217Z,13.63
2023-05-09T15:31:23.578Z,12.07
2023-05-09T15:36:15.493Z,11.00
2023-05-09T15:41:07.476Z,14.82
2023-05-09T15:45:59.301Z,18.48
2023-05-09T15:50:53.291Z,16.38
2023-05-09T15:55:45.731Z,16.27
2023-05-09T16:00:37.922Z,21.98
2023-05-09T16:05:29.786Z,21.10
2023-05-09T16:10:22.117Z,25.05
2023-05-09T16:15:13.979Z,21.13
2023-05-09T16:20:06.333Z,21.08
2023-05-09T16:24:58.110Z,19.77
2023-05-09T16:29:50.318Z,21.95
2023-05-09T16:34:42.163Z,19.15
2023-05-09T16:39:35.168Z,20.63
2023-05-09T16:44:27.212Z,20.20
2023-05-09T16:49:19.058Z,20.92
2023-05-09T16:54:10.902Z,22.38
2023-05-09T16:59:03.632Z,23.75
2023-05-09T17:03:55.769Z,22.58
2023-05-09T17:08:48.042Z,22.92
2023-05-09T17:13:41.106Z,21.58
2023-05-09T17:18:37.644Z,22.50
2023-05-09T17:23:29.992Z,25.25
2023-05-09T17:28:21.783Z,24.85
2023-05-09T17:33:13.633Z,24.80
2023-05-09T17:38:05.683Z,25.98
2023-05-09T17:42:57.511Z,23.23
2023-05-09T17:47:50.045Z,22.98
2023-05-09T17:52:42.193Z,27.70
2023-05-09T17:57:34.005Z,26.23
2023-05-09T18:02:25.940Z,21.90
2023-05-09T18:07:17.859Z,25.75
2023-05-09T18:12:10.587Z,23.13
2023-05-09T18:17:02.393Z,26.42
2023-05-09T18:21:54.140Z,27.15
2023-05-09T18:26:46.049Z,23.83
2023-05-09T18:31:39.982Z,29.23
2023-05-09T18:36:31.855Z,27.48
2023-05-09T18:41:25.005Z,27.08
2023-05-09T18:46:18.111Z,27.90
2023-05-09T18:51:10.257Z,32.85
2023-05-09T18:56:02.355Z,27.45
2023-05-09T19:00:54.293Z,29.02
2023-05-09T19:05:46.986Z,35.80
2023-05-09T19:10:38.912Z,29.13
2023-05-09T19:15:30.763Z,24.23
2023-05-09T19:20:22.750Z,25.25
2023-05-09T19:25:14.548Z,20.38
2023-05-09T19:30:07.692Z,23.23
2023-05-09T19:34:59.630Z,22.38
2023-05-09T19:39:51.607Z,24.95
2023-05-09T19:44:43.389Z,23.50
2023-05-09T19:49:35.256Z,21.58
2023-05-09T19:54:27.320Z,20.70
2023-05-09T19:59:19.101Z,17.65
2023-05-09T20:04:11.454Z,16.17
2023-05-09T20:09:03.340Z,17.92
2023-05-09T20:13:55.130Z,15.25
2023-05-09T20:18:47.252Z,18.67
2023-05-09T20:23:39.796Z,17.17
2023-05-09T20:28:32.293Z,15.52
2023-05-09T20:33:24.100Z,15.63
2023-05-09T20:38:16.139Z,14.77
2023-05-09T20:43:07.944Z,14.93
2023-05-09T20:48:00.404Z,12.60
2023-05-09T20:52:52.193Z,16.15
2023-05-09T20:57:43.946Z,15.63
2023-05-09T21:02:35.933Z,15.00
2023-05-09T21:07:27.804Z,13.70
2023-05-09T21:12:19.785Z,15.75
2023-05-09T21:17:11.933Z,13.65
2023-05-09T21:22:03.797Z,16.95
2023-05-09T21:26:56.073Z,14.35
2023-05-09T21:31:47.944Z,12.82
2023-05-09T21:36:40.741Z,13.30
2023-05-09T21:41:32.521Z,16.02
2023-05-09T21:46:24.356Z,14.05
2023-05-09T21:51:16.228Z,12.40
2023-05-09T21:56:08.464Z,14.57
2023-05-09T22:01:00.240Z,13.45
2023-05-09T22:05:51.979Z,13.55
2023-05-09T22:10:43.822Z,12.65
2023-05-09T22:15:35.578Z,17.23
2023-05-09T22:20:27.477Z,13.55
2023-05-09T22:25:19.690Z,14.00
2023-05-09T22:30:12.673Z,16.27
2023-05-09T22:35:04.972Z,13.38
2023-05-09T22:39:56.876Z,19.13
2023-05-09T22:44:49.971Z,13.45
2023-05-09T22:49:43.094Z,14.50
2023-05-09T22:54:35.878Z,12.98
2023-05-09T22:59:27.661Z,14.63
2023-05-09T23:04:19.604Z,12.82
2023-05-09T23:09:11.427Z,17.98
2023-05-09T23:14:03.996Z,17.05
2023-05-09T23:18:55.859Z,16.30
2023-05-09T23:23:47.939Z,18.15
2023-05-09T23:28:39.727Z,18.10
2023-05-09T23:33:31.543Z,20.08
2023-05-09T23:38:23.596Z,21.05
2023-05-09T23:43:15.362Z,21.60
2023-05-09T23:48:07.866Z,20.60
2023-05-09T23:52:59.689Z,18.77
2023-05-09T23:57:51.564Z,18.25
